Terminal Aerodrome Forecast
Issued by NWS Spokane, WA

Home | Current Version | Previous Version | Text Only | Print | Product List | Glossary On
Versions: 1 2 3 4 5 6 7 8 9 10 11 12
000
FTUS46 KOTX 301720
TAFLWS
TAF
KLWS 301720Z 3018/3118 36004KT P6SM SKC
     FM302000 32015G24KT P6SM SKC
     FM310400 25008KT P6SM SKC
     FM311200 VRB04KT P6SM SKC=

USA.gov is the U.S. government's official web portal to all federal, state and local government web resources and services.